Flight Track Log - Related Links

Times and Time Zones

All times are in EDT time to prevent confusion due to time zone crossing. See the JZA8474 flight status page for this flight to view local times or setup timezone preferences in your user account.

Time Position Orientation Groundspeed Altitude Reporting Facility
EDT Latitude Longitude Course Direction KTS MPH feet Rate Location/Type
Sun 03:22:00 PM 49.5263 -117.1975 52° Northeast  Level FlightAware Approximate
Sun 03:23:00 PM 49.5710 -117.1081 52° Northeast  Level FlightAware Approximate
Sun 03:24:00 PM 49.6157 -117.0186 52° Northeast  Level FlightAware Approximate
Sun 03:25:00 PM 49.6622 -116.9311 51° Northeast  Level FlightAware Approximate
Sun 03:25:51 PM 49.4667 -117.3167 52° Northeast 210 242 11,100  Level Edmonton Center
Sun 03:26:00 PM 49.7086 -116.8434 51° Northeast  Level FlightAware Approximate
Sun 03:26:51 PM 49.5167 -117.2167 52° Northeast 220 253 12,100  Level Edmonton Center
Sun 03:27:00 PM 49.7549 -116.7556 51° Northeast  Level FlightAware Approximate
Sun 03:27:51 PM 49.5500 -117.1500 52° Northeast 220 253 13,100  Level Edmonton Center
Sun 03:28:00 PM 49.8002 -116.6664 52° Northeast  Level FlightAware Approximate
Sun 03:28:51 PM 49.5833 -117.0833 52° Northeast 220 253 13,900  Level Edmonton Center
Sun 03:29:00 PM 49.8451 -116.5767 52° Northeast  Level FlightAware Approximate
Sun 03:29:51 PM 49.6333 -116.9833 52° Northeast 230 265 14,900  Level Edmonton Center
Sun 03:30:00 PM 49.8900 -116.4868 52° Northeast  Level FlightAware Approximate
Sun 03:30:51 PM 49.6667 -116.9167 52° Northeast 240 276 15,700  Level Edmonton Center
Sun 03:31:00 PM 49.9350 -116.3969 52° Northeast  Level FlightAware Approximate
Sun 03:31:51 PM 49.7167 -116.8333 47° Northeast 240 276 16,600  Level Edmonton Center
Sun 03:32:51 PM 49.7500 -116.7667 52° Northeast 250 288 17,400 850 Climbing Edmonton Center
Sun 03:33:51 PM 49.8000 -116.6667 52° Northeast 250 288 18,300 800 Climbing Edmonton Center
Sun 03:34:51 PM 49.8333 -116.5667 63° Northeast 250 288 19,000 750 Climbing Edmonton Center
Sun 03:35:51 PM 49.8833 -116.5000 41° Northeast 250 288 19,800 650 Climbing Edmonton Center
Sun 03:36:51 PM 49.9333 -116.4167 47° Northeast 250 288 20,300 550 Climbing Edmonton Center
Sun 03:37:51 PM 49.9667 -116.3167 63° Northeast 250 288 20,900 350 Climbing Edmonton Center
Sun 03:38:51 PM 50.0167 -116.2500 41° Northeast 260 299 21,000 50 Climbing Edmonton Center
Sun 03:39:51 PM 50.0667 -116.1333 56° Northeast 280 322 21,000  Level Edmonton Center
Sun 03:40:51 PM 50.1167 -116.0333 52° Northeast 300 345 21,000  Level Edmonton Center
Sun 03:41:51 PM 50.1667 -115.9333 52° Northeast 300 345 21,000  Level Edmonton Center
Sun 03:42:51 PM 50.2333 -115.8167 48° Northeast 300 345 21,000  Level Edmonton Center
Sun 03:43:51 PM 50.2667 -115.7333 58° Northeast 290 334 21,000  Level Edmonton Center
Sun 03:44:51 PM 50.3167 -115.6333 52° Northeast 270 311 21,000  Level Edmonton Center
Sun 03:45:51 PM 50.3500 -115.5667 52° Northeast 250 288 21,000  Level Edmonton Center
Sun 03:46:51 PM 50.4000 -115.4667 52° Northeast 250 288 21,000 -400 Level Edmonton Center
Sun 03:47:51 PM 50.4500 -115.3667 52° Northeast 260 299 20,200 -800 Descending Edmonton Center
Sun 03:48:51 PM 50.5000 -115.3000 40° Northeast 260 299 19,400 -850 Descending Edmonton Center
Sun 03:49:51 PM 50.5333 -115.2000 62° Northeast 250 288 18,500 -850 Descending Edmonton Center
Sun 03:50:51 PM 50.5833 -115.1000 52° Northeast 250 288 17,700 -950 Descending Edmonton Center
Sun 03:51:51 PM 50.6167 -115.0000 62° Northeast 240 276 16,600 -1,050 Descending Edmonton Center
Sun 03:52:51 PM 50.5833 -114.9667 148° Southeast 200 230 15,600 -750 Descending Edmonton Center
Sun 03:53:51 PM 50.5833 -115.0333 270° West 160 184 15,100 -550 Descending Edmonton Center
Sun 03:54:51 PM 50.6333 -114.9333 52° Northeast 220 253 14,500 -550 Descending Edmonton Center
Sun 03:55:51 PM 50.6500 -114.8333 75° East 250 288 14,000 -250 Descending Edmonton Center
Sun 03:56:51 PM 50.6667 -114.7167 77° East 250 288 14,000 -100 Level Edmonton Center
Sun 03:57:51 PM 50.7000 -114.6167 62° Northeast 250 288 13,800 -750 Descending Edmonton Center
Sun 03:58:51 PM 50.7333 -114.5333 58° Northeast 260 299 12,500 -1,200 Descending Edmonton Center
Sun 03:59:51 PM 50.7667 -114.4167 66° East 270 311 11,400 -750 Descending Edmonton Center
Sun 04:00:51 PM 50.8167 -114.3333 46° Northeast 250 288 11,000 -200 Descending Edmonton Center
Sun 04:01:51 PM 50.9000 -114.3167 North 260 299 11,000 -250 Level Edmonton Center
Sun 04:02:51 PM 50.9500 -114.2667 32° Northeast 260 299 10,500 -1,000 Descending Edmonton Center
Sun 04:03:51 PM 51.0333 -114.2667 360° North 250 288 9,000 -1,250 Descending Edmonton Center
Sun 04:04:51 PM 51.0833 -114.2833 348° North 230 265 8,000 -500 Descending Edmonton Center
Sun 04:05:51 PM 51.1167 -114.3667 303° West 210 242 8,000 -350 Level Edmonton Center
Sun 04:06:51 PM 51.1333 -114.4500 288° West 210 242 7,300 -500 Descending Edmonton Center
Sun 04:07:51 PM 51.1833 -114.4333 12° North 220 253 7,000 -150 Descending Edmonton Center
Sun 04:08:51 PM 51.2167 -114.3833 43° Northeast 210 242 7,000 -50 Level Edmonton Center
Sun 04:09:51 PM 51.1833 -114.3000 123° Southeast 180 207 6,900 -300 Descending Edmonton Center
Sun 04:10:51 PM 51.1500 -114.2333 129° Southeast 180 207 6,400 -500 Descending Edmonton Center

Login

Don't have an account? Register now (free) for customized features, flight alerts, and more!